createdAt,value
2022-10-22T00:00:53.247Z,13.82
2022-10-22T00:03:20.490Z,10.05
2022-10-22T00:05:48.593Z,12.85
2022-10-22T00:08:15.855Z,11.85
2022-10-22T00:10:43.311Z,8.80
2022-10-22T00:13:11.426Z,12.40
2022-10-22T00:15:38.864Z,11.35
2022-10-22T00:18:06.013Z,7.93
2022-10-22T00:20:33.211Z,8.40
2022-10-22T00:23:00.319Z,9.68
2022-10-22T00:25:27.813Z,12.90
2022-10-22T00:27:54.898Z,10.77
2022-10-22T00:30:22.203Z,12.20
2022-10-22T00:32:49.481Z,14.38
2022-10-22T00:35:16.888Z,14.02
2022-10-22T00:37:44.316Z,13.98
2022-10-22T00:40:12.777Z,12.73
2022-10-22T00:42:40.354Z,13.40
2022-10-22T00:45:10.886Z,11.25
2022-10-22T00:47:50.686Z,12.05
2022-10-22T00:50:23.719Z,18.80
2022-10-22T00:52:51.516Z,10.57
2022-10-22T00:55:19.609Z,14.77
2022-10-22T00:57:47.170Z,17.98
2022-10-22T01:00:15.067Z,9.20
2022-10-22T01:02:42.804Z,10.90
2022-10-22T01:05:10.584Z,15.20
2022-10-22T01:07:41.969Z,13.75
2022-10-22T01:10:11.837Z,11.57
2022-10-22T01:12:39.671Z,17.45
2022-10-22T01:15:13.037Z,16.42
2022-10-22T01:17:45.664Z,9.20
2022-10-22T01:20:23.451Z,12.25
2022-10-22T01:22:50.612Z,12.68
2022-10-22T01:25:33.062Z,9.98
2022-10-22T01:28:12.403Z,13.27
2022-10-22T01:30:40.240Z,12.43
2022-10-22T01:33:09.731Z,12.25
2022-10-22T01:35:39.203Z,8.70
2022-10-22T01:38:11.688Z,11.18
2022-10-22T01:40:40.152Z,8.80
2022-10-22T01:43:08.777Z,12.27
2022-10-22T01:45:40.539Z,10.40
2022-10-22T01:48:27.311Z,7.43
2022-10-22T01:51:13.414Z,11.32
2022-10-22T01:53:40.724Z,11.63
2022-10-22T01:56:26.893Z,15.32
2022-10-22T01:59:03.404Z,9.75
2022-10-22T02:01:42.887Z,13.40
2022-10-22T02:04:16.421Z,14.68
2022-10-22T02:06:44.932Z,10.60
2022-10-22T02:09:13.897Z,14.52
2022-10-22T02:11:41.882Z,19.73
2022-10-22T02:14:09.781Z,7.30
2022-10-22T02:16:39.396Z,11.95
2022-10-22T02:19:27.218Z,9.57
2022-10-22T02:21:55.365Z,19.15
2022-10-22T02:24:24.748Z,15.70
2022-10-22T02:26:53.360Z,12.52
2022-10-22T02:29:33.113Z,14.18
2022-10-22T02:32:04.035Z,9.60
2022-10-22T02:34:32.044Z,9.63
2022-10-22T02:37:00.795Z,17.90
2022-10-22T02:39:28.287Z,13.77
2022-10-22T02:41:58.138Z,11.45
2022-10-22T02:44:25.590Z,8.85
2022-10-22T02:46:52.850Z,12.68
2022-10-22T02:49:20.306Z,6.43
2022-10-22T02:51:47.728Z,6.90
2022-10-22T02:54:15.085Z,11.95
2022-10-22T02:56:42.511Z,8.35
2022-10-22T02:59:09.704Z,8.98
2022-10-22T03:01:37.093Z,6.40
2022-10-22T03:04:04.481Z,10.13
2022-10-22T03:06:31.612Z,10.07
2022-10-22T03:08:58.901Z,9.90
2022-10-22T03:11:26.028Z,10.30
2022-10-22T03:13:53.368Z,15.13
2022-10-22T03:16:20.643Z,13.80
2022-10-22T03:18:48.062Z,15.48
2022-10-22T03:21:24.568Z,10.82
2022-10-22T03:23:52.323Z,23.23
2022-10-22T03:26:21.169Z,16.45
2022-10-22T03:28:49.489Z,14.98
2022-10-22T03:31:16.893Z,14.52
2022-10-22T03:33:44.161Z,16.40
2022-10-22T03:36:13.901Z,16.70
2022-10-22T03:38:41.711Z,10.35
2022-10-22T03:41:09.249Z,15.20
2022-10-22T03:43:38.364Z,15.75
2022-10-22T03:46:05.701Z,9.88
2022-10-22T03:48:32.982Z,15.95
2022-10-22T03:51:00.303Z,18.17
2022-10-22T03:53:27.747Z,14.02
2022-10-22T03:55:54.991Z,12.82
2022-10-22T03:58:22.251Z,8.60
2022-10-22T04:00:49.463Z,13.75
2022-10-22T04:03:16.809Z,9.05
2022-10-22T04:05:44.295Z,13.65
2022-10-22T04:08:11.432Z,18.45
2022-10-22T04:10:38.585Z,10.88
2022-10-22T04:13:06.099Z,13.73
2022-10-22T04:15:33.336Z,12.88
2022-10-22T04:18:00.727Z,18.30
2022-10-22T04:20:27.780Z,8.45
2022-10-22T04:22:55.111Z,9.95
2022-10-22T04:25:22.251Z,14.65
2022-10-22T04:27:49.539Z,13.43
2022-10-22T04:30:16.822Z,15.70
2022-10-22T04:32:47.122Z,17.17
2022-10-22T04:35:14.472Z,13.30
2022-10-22T04:37:42.226Z,11.77
2022-10-22T04:40:10.190Z,22.98
2022-10-22T04:42:37.304Z,12.68
2022-10-22T04:45:04.994Z,14.20
2022-10-22T04:47:32.096Z,12.00
2022-10-22T04:49:59.482Z,11.40
2022-10-22T04:52:26.591Z,14.55
2022-10-22T04:54:53.905Z,14.27
2022-10-22T04:57:21.006Z,9.98
2022-10-22T04:59:48.344Z,11.90
2022-10-22T05:02:15.509Z,12.45
2022-10-22T05:04:44.516Z,16.27
2022-10-22T05:07:11.641Z,12.98
2022-10-22T05:09:39.142Z,17.02
2022-10-22T05:12:06.523Z,12.25
2022-10-22T05:14:33.922Z,16.58
2022-10-22T05:17:01.067Z,10.77
2022-10-22T05:19:29.545Z,11.50
2022-10-22T05:21:57.861Z,24.10
2022-10-22T05:24:25.155Z,16.38
2022-10-22T05:26:53.149Z,11.85
2022-10-22T05:29:20.924Z,11.23
2022-10-22T05:31:48.502Z,15.55
2022-10-22T05:34:16.406Z,8.98
2022-10-22T05:36:43.927Z,14.35
2022-10-22T05:39:11.354Z,13.05
2022-10-22T05:41:38.605Z,7.20
2022-10-22T05:44:06.306Z,14.80
2022-10-22T05:46:35.889Z,15.27
2022-10-22T05:49:04.981Z,16.63
2022-10-22T05:51:33.332Z,10.43
2022-10-22T05:54:03.021Z,14.68
2022-10-22T05:56:32.036Z,16.33
2022-10-22T05:58:59.271Z,14.07
2022-10-22T06:01:28.724Z,13.75
2022-10-22T06:03:57.565Z,14.65
2022-10-22T06:06:35.342Z,9.90
2022-10-22T06:09:23.205Z,11.63
2022-10-22T06:11:50.984Z,12.45
2022-10-22T06:14:18.816Z,17.00
2022-10-22T06:16:46.095Z,20.10
2022-10-22T06:19:14.551Z,15.27
2022-10-22T06:21:41.996Z,9.20
2022-10-22T06:24:10.299Z,10.52
2022-10-22T06:26:38.608Z,9.88
2022-10-22T06:29:05.935Z,17.33
2022-10-22T06:31:36.764Z,16.80
2022-10-22T06:34:05.151Z,17.80
2022-10-22T06:36:32.497Z,10.75
2022-10-22T06:38:59.804Z,13.38
2022-10-22T06:41:28.953Z,22.98
2022-10-22T06:43:57.770Z,10.13
2022-10-22T06:46:26.105Z,14.70
2022-10-22T06:48:55.913Z,9.90
2022-10-22T06:51:23.244Z,15.65
2022-10-22T06:53:51.101Z,13.57
2022-10-22T06:56:19.752Z,13.48
2022-10-22T06:58:54.267Z,18.02
2022-10-22T07:01:25.937Z,11.20
2022-10-22T07:03:53.846Z,18.48
2022-10-22T07:06:21.952Z,15.95
2022-10-22T07:08:49.166Z,16.45
2022-10-22T07:11:17.843Z,13.25
2022-10-22T07:13:45.329Z,13.90
2022-10-22T07:16:12.631Z,10.98
2022-10-22T07:18:40.408Z,13.40
2022-10-22T07:21:08.465Z,14.02
2022-10-22T07:23:36.056Z,10.75
2022-10-22T07:26:03.698Z,13.45
2022-10-22T07:28:32.590Z,13.80
2022-10-22T07:31:00.219Z,15.20
2022-10-22T07:33:27.727Z,9.90
2022-10-22T07:35:59.445Z,10.73
2022-10-22T07:38:27.080Z,7.85
2022-10-22T07:40:55.283Z,17.35
2022-10-22T07:43:22.713Z,8.90
2022-10-22T07:45:50.112Z,16.00
2022-10-22T07:48:17.585Z,17.10
2022-10-22T07:53:12.155Z,7.85
2022-10-22T07:55:39.547Z,11.60
2022-10-22T07:58:06.949Z,13.70
2022-10-22T08:00:34.214Z,12.07
2022-10-22T08:03:01.402Z,11.82
2022-10-22T08:05:28.568Z,12.73
2022-10-22T08:07:56.017Z,7.88
2022-10-22T08:10:23.438Z,16.45
2022-10-22T08:12:50.737Z,13.70
2022-10-22T08:15:17.907Z,12.50
2022-10-22T08:17:45.070Z,9.98
2022-10-22T08:20:12.444Z,7.85
2022-10-22T08:22:39.860Z,11.57
2022-10-22T08:25:07.226Z,14.95
2022-10-22T08:27:34.562Z,11.57
2022-10-22T08:30:02.187Z,7.55
2022-10-22T08:32:29.370Z,16.20
2022-10-22T08:34:56.673Z,10.48
2022-10-22T08:37:23.864Z,13.57
2022-10-22T08:39:50.961Z,10.27
2022-10-22T08:42:36.436Z,10.55
2022-10-22T08:45:20.134Z,9.15
2022-10-22T08:47:53.580Z,6.40
2022-10-22T08:50:24.818Z,6.45
2022-10-22T08:52:55.729Z,11.63
2022-10-22T08:55:24.582Z,12.75
2022-10-22T08:57:56.435Z,9.95
2022-10-22T09:00:29.580Z,12.65
2022-10-22T09:03:15.373Z,12.05
2022-10-22T09:05:52.865Z,13.45
2022-10-22T09:08:20.761Z,11.07
2022-10-22T09:11:02.754Z,7.45
2022-10-22T09:13:30.402Z,16.70
2022-10-22T09:16:01.019Z,9.18
2022-10-22T09:18:37.369Z,8.55
2022-10-22T09:21:14.844Z,15.02
2022-10-22T09:23:45.199Z,11.55
2022-10-22T09:26:16.125Z,8.52
2022-10-22T09:28:43.486Z,7.25
2022-10-22T09:31:14.881Z,14.48
2022-10-22T09:33:43.769Z,10.38
2022-10-22T09:36:14.650Z,7.50
2022-10-22T09:38:45.444Z,8.50
2022-10-22T09:41:12.736Z,15.80
2022-10-22T09:43:40.021Z,12.55
2022-10-22T09:46:08.691Z,10.02
2022-10-22T09:48:39.393Z,13.60
2022-10-22T09:51:12.564Z,8.52
2022-10-22T09:53:43.383Z,14.52
2022-10-22T09:56:17.667Z,8.68
2022-10-22T09:58:49.352Z,7.65
2022-10-22T10:01:29.901Z,11.98
2022-10-22T10:04:08.344Z,10.27
2022-10-22T10:06:39.073Z,6.10
2022-10-22T10:09:17.079Z,14.45
2022-10-22T10:11:47.764Z,8.95
2022-10-22T10:14:29.972Z,14.88
2022-10-22T10:17:12.379Z,15.35
2022-10-22T10:19:53.875Z,12.85
2022-10-22T10:22:41.105Z,8.77
2022-10-22T10:25:27.231Z,11.93
2022-10-22T10:28:05.204Z,16.88
2022-10-22T10:30:34.809Z,16.15
2022-10-22T10:33:16.693Z,11.20
2022-10-22T10:35:55.210Z,14.23
2022-10-22T10:38:31.792Z,13.90
2022-10-22T10:41:13.873Z,9.93
2022-10-22T10:43:56.316Z,20.80
2022-10-22T10:46:33.386Z,17.05
2022-10-22T10:49:16.719Z,20.75
2022-10-22T10:52:02.890Z,18.08
2022-10-22T10:54:30.219Z,9.88
2022-10-22T10:57:18.100Z,14.95
2022-10-22T11:00:04.143Z,15.98
2022-10-22T11:02:42.047Z,12.02
2022-10-22T11:05:28.163Z,21.13
2022-10-22T11:08:00.301Z,14.73
2022-10-22T11:10:41.375Z,10.23
2022-10-22T11:13:27.769Z,10.38
2022-10-22T11:16:04.093Z,13.57
2022-10-22T11:18:33.786Z,13.13
2022-10-22T11:21:10.131Z,16.15
2022-10-22T11:23:43.315Z,11.23
2022-10-22T11:26:15.739Z,13.98
2022-10-22T11:28:44.623Z,11.30
2022-10-22T11:31:16.868Z,23.05
2022-10-22T11:34:04.960Z,18.17
2022-10-22T11:36:43.691Z,12.13
2022-10-22T11:39:29.463Z,17.58
2022-10-22T11:41:58.874Z,20.27
2022-10-22T11:44:26.340Z,16.45
2022-10-22T11:46:58.427Z,14.00
2022-10-22T11:49:41.992Z,13.68
2022-10-22T11:52:28.222Z,16.50
2022-10-22T11:54:57.692Z,12.52
2022-10-22T11:57:29.806Z,7.68
2022-10-22T11:59:58.827Z,12.52
2022-10-22T12:02:31.682Z,17.35
2022-10-22T12:05:31.456Z,16.23
2022-10-22T12:08:16.158Z,9.60
2022-10-22T12:10:52.690Z,13.57
2022-10-22T12:13:27.974Z,14.35
2022-10-22T12:15:57.348Z,21.92
2022-10-22T12:18:26.502Z,16.30
2022-10-22T12:20:54.536Z,14.48
2022-10-22T12:23:25.636Z,12.55
2022-10-22T12:25:52.888Z,10.50
2022-10-22T12:28:20.063Z,7.35
2022-10-22T12:30:47.987Z,16.52
2022-10-22T12:33:23.665Z,10.60
2022-10-22T12:35:54.174Z,10.77
2022-10-22T12:38:23.039Z,16.85
2022-10-22T12:40:51.512Z,18.83
2022-10-22T12:43:19.643Z,13.20
2022-10-22T12:45:49.908Z,13.90
2022-10-22T12:48:25.774Z,17.25
2022-10-22T12:50:54.155Z,15.80
2022-10-22T12:53:35.242Z,12.68
2022-10-22T12:56:04.842Z,12.13
2022-10-22T12:58:50.089Z,19.05
2022-10-22T13:01:18.730Z,15.13
2022-10-22T13:03:50.474Z,13.05
2022-10-22T13:06:20.870Z,21.90
2022-10-22T13:09:00.635Z,19.90
2022-10-22T13:12:01.778Z,8.00
2022-10-22T13:14:30.361Z,17.08
2022-10-22T13:17:08.585Z,10.27
2022-10-22T13:19:46.646Z,16.90
2022-10-22T13:22:33.604Z,14.23
2022-10-22T13:25:19.452Z,15.48
2022-10-22T13:27:51.753Z,11.70
2022-10-22T13:30:28.289Z,11.45
2022-10-22T13:32:56.722Z,13.35
2022-10-22T13:35:25.444Z,8.60
2022-10-22T13:37:52.967Z,10.52
2022-10-22T13:40:59.723Z,13.73
2022-10-22T13:43:27.074Z,14.07
2022-10-22T13:45:56.279Z,17.83
2022-10-22T13:48:24.381Z,11.35
2022-10-22T13:50:53.161Z,11.75
2022-10-22T13:53:24.619Z,15.63
2022-10-22T13:55:55.945Z,10.65
2022-10-22T13:58:26.825Z,10.32
2022-10-22T14:01:02.049Z,18.52
2022-10-22T14:03:31.476Z,10.07
2022-10-22T14:05:58.859Z,13.65
2022-10-22T14:08:27.003Z,10.95
2022-10-22T14:10:54.885Z,14.50
2022-10-22T14:13:22.497Z,13.05
2022-10-22T14:15:51.530Z,14.43
2022-10-22T14:18:26.294Z,13.50
2022-10-22T14:20:54.918Z,11.15
2022-10-22T14:23:22.681Z,14.88
2022-10-22T14:25:53.546Z,12.07
2022-10-22T14:30:48.943Z,12.25
2022-10-22T14:33:21.330Z,12.70
2022-10-22T14:35:49.437Z,12.55
2022-10-22T14:38:17.623Z,12.88
2022-10-22T14:40:45.775Z,18.45
2022-10-22T14:43:27.494Z,11.65
2022-10-22T14:45:56.068Z,7.82
2022-10-22T14:48:26.219Z,13.40
2022-10-22T14:50:55.083Z,11.48
2022-10-22T14:53:22.424Z,8.13
2022-10-22T14:55:51.638Z,11.32
2022-10-22T14:58:19.442Z,7.55
2022-10-22T15:00:46.509Z,9.15
2022-10-22T15:03:14.963Z,12.90
2022-10-22T15:05:44.467Z,12.40
2022-10-22T15:08:14.057Z,10.70
2022-10-22T15:10:41.553Z,37.13
2022-10-22T15:13:08.929Z,11.20
2022-10-22T15:15:39.468Z,9.95
2022-10-22T15:18:08.239Z,10.77
2022-10-22T15:20:36.324Z,12.27
2022-10-22T15:23:03.778Z,9.77
2022-10-22T15:25:31.663Z,12.20
2022-10-22T15:28:02.049Z,12.10
2022-10-22T15:30:32.169Z,10.85
2022-10-22T15:33:01.705Z,10.88
2022-10-22T15:35:30.586Z,13.88
2022-10-22T15:38:01.311Z,15.45
2022-10-22T15:40:35.058Z,11.82
2022-10-22T15:43:07.641Z,14.55
2022-10-22T15:45:35.700Z,9.35
2022-10-22T15:48:05.575Z,9.95
2022-10-22T15:50:33.765Z,12.13
2022-10-22T15:53:12.714Z,12.57
2022-10-22T15:55:43.240Z,9.45
2022-10-22T15:58:13.912Z,21.92
2022-10-22T16:00:44.445Z,10.30
2022-10-22T16:03:14.371Z,13.68
2022-10-22T16:05:50.432Z,12.77
2022-10-22T16:08:17.913Z,11.02
2022-10-22T16:10:49.831Z,14.10
2022-10-22T16:13:17.208Z,12.18
2022-10-22T16:15:44.320Z,10.00
2022-10-22T16:18:14.519Z,11.02
2022-10-22T16:20:42.209Z,13.17
2022-10-22T16:23:10.138Z,11.10
2022-10-22T16:25:44.118Z,10.75
2022-10-22T16:28:12.068Z,13.52
2022-10-22T16:30:41.781Z,8.20
2022-10-22T16:33:10.763Z,12.57
2022-10-22T16:35:44.065Z,11.35
2022-10-22T16:38:12.786Z,10.30
2022-10-22T16:40:40.144Z,17.73
2022-10-22T16:43:08.332Z,20.42
2022-10-22T16:45:35.575Z,19.42
2022-10-22T16:48:02.855Z,13.48
2022-10-22T16:50:31.596Z,15.90
2022-10-22T16:52:59.961Z,15.15
2022-10-22T16:55:50.299Z,17.45
2022-10-22T16:58:18.397Z,14.38
2022-10-22T17:00:46.222Z,15.75
2022-10-22T17:03:14.767Z,12.45
2022-10-22T17:05:42.169Z,23.88
2022-10-22T17:08:09.824Z,11.38
2022-10-22T17:10:37.877Z,14.13
2022-10-22T17:13:06.885Z,12.20
2022-10-22T17:15:34.418Z,13.77
2022-10-22T17:18:01.859Z,11.73
2022-10-22T17:20:29.042Z,15.05
2022-10-22T17:22:56.583Z,15.95
2022-10-22T17:25:25.448Z,14.48
2022-10-22T17:27:56.608Z,18.92
2022-10-22T17:30:27.240Z,14.70
2022-10-22T17:32:55.498Z,17.27
2022-10-22T17:35:22.965Z,13.23
2022-10-22T17:37:52.424Z,16.40
2022-10-22T17:40:19.610Z,17.92
2022-10-22T17:42:49.394Z,11.85
2022-10-22T17:45:17.845Z,20.10
2022-10-22T17:47:45.369Z,15.27
2022-10-22T17:50:12.724Z,19.50
2022-10-22T17:52:42.831Z,19.45
2022-10-22T17:55:11.255Z,15.40
2022-10-22T17:57:39.294Z,17.20
2022-10-22T18:00:07.232Z,15.27
2022-10-22T18:02:34.675Z,15.30
2022-10-22T18:05:01.980Z,20.08
2022-10-22T18:07:29.363Z,30.13
2022-10-22T18:09:57.577Z,59.38
2022-10-22T18:12:25.073Z,201.32
2022-10-22T18:14:52.715Z,171.10
2022-10-22T18:17:19.930Z,146.18
2022-10-22T18:19:49.472Z,121.78
2022-10-22T18:22:16.805Z,117.60
2022-10-22T18:24:44.233Z,68.82
2022-10-22T18:27:11.578Z,73.28
2022-10-22T18:29:39.354Z,149.52
2022-10-22T18:32:12.097Z,127.82
2022-10-22T18:34:40.331Z,103.40
2022-10-22T18:37:07.812Z,47.45
2022-10-22T18:39:35.759Z,48.00
2022-10-22T18:42:06.339Z,34.90
2022-10-22T18:44:34.911Z,35.45
2022-10-22T18:47:02.453Z,16.38
2022-10-22T18:49:29.765Z,21.63
2022-10-22T18:51:57.139Z,16.65
2022-10-22T18:54:25.407Z,24.20
2022-10-22T18:57:00.581Z,18.38
2022-10-22T18:59:28.229Z,21.88
2022-10-22T19:01:59.955Z,24.23
2022-10-22T19:04:33.113Z,26.13
2022-10-22T19:07:00.722Z,15.35
2022-10-22T19:09:28.855Z,13.68
2022-10-22T19:11:56.485Z,19.10
2022-10-22T19:14:24.281Z,25.27
2022-10-22T19:16:52.008Z,16.35
2022-10-22T19:19:20.649Z,17.80
2022-10-22T19:21:49.139Z,14.38
2022-10-22T19:24:17.584Z,20.08
2022-10-22T19:26:45.372Z,16.83
2022-10-22T19:29:12.588Z,23.75
2022-10-22T19:31:40.923Z,19.95
2022-10-22T19:34:08.093Z,14.80
2022-10-22T19:36:36.038Z,12.50
2022-10-22T19:39:03.714Z,13.20
2022-10-22T19:41:32.113Z,18.63
2022-10-22T19:44:00.312Z,19.13
2022-10-22T19:46:28.799Z,16.55
2022-10-22T19:48:57.336Z,22.02
2022-10-22T19:51:26.601Z,11.43
2022-10-22T19:54:02.264Z,17.45
2022-10-22T19:56:29.865Z,15.98
2022-10-22T19:58:57.776Z,12.60
2022-10-22T20:01:25.327Z,15.02
2022-10-22T20:03:53.058Z,16.77
2022-10-22T20:06:21.758Z,10.70
2022-10-22T20:08:53.729Z,13.00
2022-10-22T20:11:27.860Z,16.38
2022-10-22T20:13:55.333Z,14.25
2022-10-22T20:16:24.573Z,15.80
2022-10-22T20:18:52.474Z,12.43
2022-10-22T20:21:20.508Z,14.30
2022-10-22T20:23:48.265Z,12.82
2022-10-22T20:26:15.564Z,13.30
2022-10-22T20:28:43.420Z,12.43
2022-10-22T20:31:15.639Z,15.27
2022-10-22T20:33:42.965Z,16.67
2022-10-22T20:36:14.261Z,18.48
2022-10-22T20:38:41.702Z,23.10
2022-10-22T20:41:11.095Z,17.70
2022-10-22T20:43:38.536Z,14.23
2022-10-22T20:46:06.052Z,18.65
2022-10-22T20:48:34.463Z,13.27
2022-10-22T20:51:01.953Z,26.48
2022-10-22T20:53:29.506Z,21.88
2022-10-22T20:55:59.647Z,14.93
2022-10-22T20:58:27.246Z,27.45
2022-10-22T21:00:55.486Z,17.17
2022-10-22T21:03:23.408Z,13.57
2022-10-22T21:05:50.911Z,18.35
2022-10-22T21:08:18.478Z,19.95
2022-10-22T21:10:48.883Z,20.35
2022-10-22T21:13:19.488Z,17.92
2022-10-22T21:15:46.666Z,16.75
2022-10-22T21:18:14.806Z,22.27
2022-10-22T21:20:42.285Z,19.42
2022-10-22T21:23:09.874Z,18.70
2022-10-22T21:25:40.799Z,22.67
2022-10-22T21:28:12.739Z,15.77
2022-10-22T21:30:45.579Z,21.20
2022-10-22T21:33:12.999Z,18.48
2022-10-22T21:35:40.337Z,21.83
2022-10-22T21:38:08.714Z,23.48
2022-10-22T21:40:39.078Z,19.48
2022-10-22T21:43:07.478Z,22.10
2022-10-22T21:48:02.989Z,27.05
2022-10-22T21:50:30.951Z,23.27
2022-10-22T21:52:58.329Z,27.52
2022-10-22T21:55:25.825Z,27.98
2022-10-22T21:57:53.021Z,20.63
2022-10-22T22:00:21.968Z,21.00
2022-10-22T22:02:51.479Z,22.17
2022-10-22T22:05:20.702Z,22.23
2022-10-22T22:07:48.048Z,24.02
2022-10-22T22:10:15.373Z,19.58
2022-10-22T22:12:43.884Z,19.55
2022-10-22T22:15:11.777Z,18.45
2022-10-22T22:17:40.289Z,29.58
2022-10-22T22:20:10.067Z,19.00
2022-10-22T22:22:37.686Z,22.38
2022-10-22T22:25:05.224Z,16.73
2022-10-22T22:27:32.529Z,25.85
2022-10-22T22:29:59.709Z,20.65
2022-10-22T22:32:26.949Z,15.27
2022-10-22T22:34:54.124Z,20.42
2022-10-22T22:37:21.244Z,24.98
2022-10-22T22:39:48.542Z,17.60
2022-10-22T22:42:15.950Z,15.20
2022-10-22T22:44:43.324Z,17.52
2022-10-22T22:47:10.688Z,21.25
2022-10-22T22:49:38.090Z,16.92
2022-10-22T22:52:06.327Z,19.40
2022-10-22T22:54:33.790Z,20.75
2022-10-22T22:57:01.023Z,20.23
2022-10-22T22:59:28.403Z,19.73
2022-10-22T23:01:55.596Z,21.05
2022-10-22T23:04:23.764Z,17.30
2022-10-22T23:06:51.245Z,16.80
2022-10-22T23:11:46.614Z,17.33
2022-10-22T23:14:14.850Z,17.42
2022-10-22T23:16:45.521Z,22.42
2022-10-22T23:19:14.473Z,22.35
2022-10-22T23:21:44.984Z,14.52
2022-10-22T23:24:14.608Z,25.90
2022-10-22T23:26:46.395Z,16.20
2022-10-22T23:29:19.020Z,18.05
2022-10-22T23:31:46.437Z,20.70
2022-10-22T23:34:15.288Z,34.60
2022-10-22T23:36:42.654Z,21.15
2022-10-22T23:39:11.697Z,19.48
2022-10-22T23:41:39.102Z,18.95
2022-10-22T23:44:07.451Z,16.38
2022-10-22T23:46:34.652Z,26.05
2022-10-22T23:49:02.665Z,28.20
2022-10-22T23:51:29.948Z,25.25
2022-10-22T23:53:58.328Z,18.77
2022-10-22T23:56:26.246Z,21.75
2022-10-22T23:58:54.181Z,17.73
